sensor_id;sensor_type;location;lat;lon;timestamp;P1;durP1;ratioP1;P2;durP2;ratioP2
24335;SDS011;75016;52.400;16.880;2023-12-20T00:00:25;3.50;;;2.90;;
24335;SDS011;75016;52.400;16.880;2023-12-20T00:03:12;4.70;;;3.80;;
24335;SDS011;75016;52.400;16.880;2023-12-20T00:05:38;5.10;;;3.40;;
24335;SDS011;75016;52.400;16.880;2023-12-20T00:08:07;4.00;;;3.20;;
24335;SDS011;75016;52.400;16.880;2023-12-20T00:10:33;4.30;;;3.20;;
24335;SDS011;75016;52.400;16.880;2023-12-20T00:13:00;4.60;;;3.10;;
24335;SDS011;75016;52.400;16.880;2023-12-20T00:15:26;5.10;;;3.70;;
24335;SDS011;75016;52.400;16.880;2023-12-20T00:17:53;4.70;;;3.30;;
24335;SDS011;75016;52.400;16.880;2023-12-20T00:20:19;5.60;;;3.30;;
24335;SDS011;75016;52.400;16.880;2023-12-20T00:22:46;3.70;;;3.30;;
24335;SDS011;75016;52.400;16.880;2023-12-20T00:25:12;4.10;;;3.40;;
24335;SDS011;75016;52.400;16.880;2023-12-20T00:27:39;4.00;;;3.50;;
24335;SDS011;75016;52.400;16.880;2023-12-20T00:30:06;3.30;;;2.80;;
24335;SDS011;75016;52.400;16.880;2023-12-20T00:32:33;3.60;;;3.30;;
24335;SDS011;75016;52.400;16.880;2023-12-20T00:34:59;3.50;;;3.00;;
24335;SDS011;75016;52.400;16.880;2023-12-20T00:37:25;3.90;;;2.90;;
24335;SDS011;75016;52.400;16.880;2023-12-20T00:39:52;3.90;;;2.90;;
24335;SDS011;75016;52.400;16.880;2023-12-20T00:42:19;3.60;;;2.80;;
24335;SDS011;75016;52.400;16.880;2023-12-20T00:44:45;4.60;;;2.80;;
24335;SDS011;75016;52.400;16.880;2023-12-20T00:47:12;3.50;;;3.00;;
24335;SDS011;75016;52.400;16.880;2023-12-20T00:49:39;2.70;;;2.20;;
24335;SDS011;75016;52.400;16.880;2023-12-20T00:52:06;4.30;;;2.90;;
24335;SDS011;75016;52.400;16.880;2023-12-20T00:54:32;3.40;;;2.90;;
24335;SDS011;75016;52.400;16.880;2023-12-20T00:56:59;3.20;;;2.90;;
24335;SDS011;75016;52.400;16.880;2023-12-20T00:59:25;3.10;;;2.60;;
24335;SDS011;75016;52.400;16.880;2023-12-20T01:01:52;3.20;;;2.80;;
24335;SDS011;75016;52.400;16.880;2023-12-20T01:04:18;2.90;;;2.60;;
24335;SDS011;75016;52.400;16.880;2023-12-20T01:06:45;2.60;;;2.40;;
24335;SDS011;75016;52.400;16.880;2023-12-20T01:09:12;2.50;;;2.30;;
24335;SDS011;75016;52.400;16.880;2023-12-20T01:11:38;2.90;;;2.50;;
24335;SDS011;75016;52.400;16.880;2023-12-20T01:14:04;3.00;;;2.10;;
24335;SDS011;75016;52.400;16.880;2023-12-20T01:16:31;3.40;;;2.60;;
24335;SDS011;75016;52.400;16.880;2023-12-20T01:18:58;4.30;;;2.60;;
24335;SDS011;75016;52.400;16.880;2023-12-20T01:21:24;3.30;;;2.70;;
24335;SDS011;75016;52.400;16.880;2023-12-20T01:23:51;3.30;;;2.50;;
24335;SDS011;75016;52.400;16.880;2023-12-20T01:26:18;4.00;;;2.40;;
24335;SDS011;75016;52.400;16.880;2023-12-20T01:28:44;2.40;;;2.10;;
24335;SDS011;75016;52.400;16.880;2023-12-20T01:31:11;2.90;;;2.60;;
24335;SDS011;75016;52.400;16.880;2023-12-20T01:33:37;3.20;;;2.60;;
24335;SDS011;75016;52.400;16.880;2023-12-20T01:36:04;2.60;;;2.20;;
24335;SDS011;75016;52.400;16.880;2023-12-20T01:38:31;3.40;;;2.40;;
24335;SDS011;75016;52.400;16.880;2023-12-20T01:40:57;3.10;;;2.30;;
24335;SDS011;75016;52.400;16.880;2023-12-20T01:43:24;3.10;;;2.50;;
24335;SDS011;75016;52.400;16.880;2023-12-20T01:45:50;3.40;;;2.20;;
24335;SDS011;75016;52.400;16.880;2023-12-20T01:48:18;2.90;;;2.30;;
24335;SDS011;75016;52.400;16.880;2023-12-20T01:50:46;2.30;;;2.10;;
24335;SDS011;75016;52.400;16.880;2023-12-20T01:53:13;2.60;;;2.20;;
24335;SDS011;75016;52.400;16.880;2023-12-20T01:55:41;2.70;;;2.40;;
24335;SDS011;75016;52.400;16.880;2023-12-20T01:58:09;2.60;;;2.20;;
24335;SDS011;75016;52.400;16.880;2023-12-20T02:00:36;2.40;;;2.20;;
24335;SDS011;75016;52.400;16.880;2023-12-20T02:03:03;3.10;;;2.50;;
24335;SDS011;75016;52.400;16.880;2023-12-20T02:05:31;2.20;;;2.00;;
24335;SDS011;75016;52.400;16.880;2023-12-20T02:07:58;3.90;;;2.70;;
24335;SDS011;75016;52.400;16.880;2023-12-20T02:10:25;3.40;;;2.90;;
24335;SDS011;75016;52.400;16.880;2023-12-20T02:12:51;3.50;;;2.80;;
24335;SDS011;75016;52.400;16.880;2023-12-20T02:15:18;3.20;;;2.90;;
24335;SDS011;75016;52.400;16.880;2023-12-20T02:17:45;5.00;;;3.80;;
24335;SDS011;75016;52.400;16.880;2023-12-20T02:20:13;4.00;;;3.60;;
24335;SDS011;75016;52.400;16.880;2023-12-20T02:22:40;5.40;;;3.70;;
24335;SDS011;75016;52.400;16.880;2023-12-20T02:25:07;4.90;;;4.30;;
24335;SDS011;75016;52.400;16.880;2023-12-20T02:27:34;4.40;;;4.00;;
24335;SDS011;75016;52.400;16.880;2023-12-20T02:30:01;4.50;;;4.00;;
24335;SDS011;75016;52.400;16.880;2023-12-20T02:32:27;4.70;;;4.10;;
24335;SDS011;75016;52.400;16.880;2023-12-20T02:34:55;4.80;;;3.90;;
24335;SDS011;75016;52.400;16.880;2023-12-20T02:37:22;3.40;;;3.10;;
24335;SDS011;75016;52.400;16.880;2023-12-20T02:39:48;3.70;;;2.80;;
24335;SDS011;75016;52.400;16.880;2023-12-20T02:42:15;3.00;;;2.70;;
24335;SDS011;75016;52.400;16.880;2023-12-20T02:44:41;3.00;;;2.60;;
24335;SDS011;75016;52.400;16.880;2023-12-20T02:47:08;3.40;;;3.10;;
24335;SDS011;75016;52.400;16.880;2023-12-20T02:49:34;3.10;;;2.80;;
24335;SDS011;75016;52.400;16.880;2023-12-20T02:52:01;3.50;;;2.80;;
24335;SDS011;75016;52.400;16.880;2023-12-20T02:54:27;3.50;;;3.20;;
24335;SDS011;75016;52.400;16.880;2023-12-20T02:56:54;2.70;;;2.50;;
24335;SDS011;75016;52.400;16.880;2023-12-20T02:59:21;1.90;;;1.80;;
24335;SDS011;75016;52.400;16.880;2023-12-20T03:01:47;2.80;;;2.60;;
24335;SDS011;75016;52.400;16.880;2023-12-20T03:04:13;2.50;;;2.30;;
24335;SDS011;75016;52.400;16.880;2023-12-20T03:06:40;2.80;;;2.50;;
24335;SDS011;75016;52.400;16.880;2023-12-20T03:09:07;2.90;;;2.60;;
24335;SDS011;75016;52.400;16.880;2023-12-20T03:11:34;2.80;;;2.30;;
24335;SDS011;75016;52.400;16.880;2023-12-20T03:14:00;2.60;;;2.40;;
24335;SDS011;75016;52.400;16.880;2023-12-20T03:16:27;2.30;;;2.10;;
24335;SDS011;75016;52.400;16.880;2023-12-20T03:18:53;3.00;;;2.70;;
24335;SDS011;75016;52.400;16.880;2023-12-20T03:21:20;2.60;;;2.40;;
24335;SDS011;75016;52.400;16.880;2023-12-20T03:23:46;2.40;;;2.20;;
24335;SDS011;75016;52.400;16.880;2023-12-20T03:26:13;3.40;;;2.50;;
24335;SDS011;75016;52.400;16.880;2023-12-20T03:28:40;2.50;;;2.30;;
24335;SDS011;75016;52.400;16.880;2023-12-20T03:31:07;2.50;;;2.30;;
24335;SDS011;75016;52.400;16.880;2023-12-20T03:33:33;2.90;;;2.60;;
24335;SDS011;75016;52.400;16.880;2023-12-20T03:36:00;3.00;;;2.70;;
24335;SDS011;75016;52.400;16.880;2023-12-20T03:38:26;3.50;;;3.20;;
24335;SDS011;75016;52.400;16.880;2023-12-20T03:40:52;3.40;;;3.10;;
24335;SDS011;75016;52.400;16.880;2023-12-20T03:43:19;3.50;;;3.00;;
24335;SDS011;75016;52.400;16.880;2023-12-20T03:45:46;3.70;;;3.30;;
24335;SDS011;75016;52.400;16.880;2023-12-20T03:48:12;3.00;;;2.80;;
24335;SDS011;75016;52.400;16.880;2023-12-20T03:50:39;2.60;;;2.40;;
24335;SDS011;75016;52.400;16.880;2023-12-20T03:53:05;3.20;;;2.80;;
24335;SDS011;75016;52.400;16.880;2023-12-20T03:55:32;3.90;;;2.60;;
24335;SDS011;75016;52.400;16.880;2023-12-20T03:57:58;4.70;;;2.90;;
24335;SDS011;75016;52.400;16.880;2023-12-20T04:00:25;3.00;;;2.80;;
24335;SDS011;75016;52.400;16.880;2023-12-20T04:02:51;2.80;;;2.50;;
24335;SDS011;75016;52.400;16.880;2023-12-20T04:05:18;3.90;;;3.30;;
24335;SDS011;75016;52.400;16.880;2023-12-20T04:07:46;3.20;;;2.90;;
24335;SDS011;75016;52.400;16.880;2023-12-20T04:10:12;3.40;;;3.10;;
24335;SDS011;75016;52.400;16.880;2023-12-20T04:12:39;3.10;;;2.80;;
24335;SDS011;75016;52.400;16.880;2023-12-20T04:15:05;3.70;;;3.10;;
24335;SDS011;75016;52.400;16.880;2023-12-20T04:17:35;3.30;;;3.00;;
24335;SDS011;75016;52.400;16.880;2023-12-20T04:20:02;2.90;;;2.70;;
24335;SDS011;75016;52.400;16.880;2023-12-20T04:22:29;3.80;;;3.30;;
24335;SDS011;75016;52.400;16.880;2023-12-20T04:24:56;3.30;;;3.00;;
24335;SDS011;75016;52.400;16.880;2023-12-20T04:27:22;3.00;;;2.70;;
24335;SDS011;75016;52.400;16.880;2023-12-20T04:29:48;3.40;;;3.10;;
24335;SDS011;75016;52.400;16.880;2023-12-20T04:32:15;3.10;;;2.80;;
24335;SDS011;75016;52.400;16.880;2023-12-20T04:34:41;2.90;;;2.70;;
24335;SDS011;75016;52.400;16.880;2023-12-20T04:37:08;3.10;;;2.80;;
24335;SDS011;75016;52.400;16.880;2023-12-20T04:39:34;3.20;;;2.80;;
24335;SDS011;75016;52.400;16.880;2023-12-20T04:42:01;3.20;;;2.50;;
24335;SDS011;75016;52.400;16.880;2023-12-20T04:44:28;3.40;;;3.00;;
24335;SDS011;75016;52.400;16.880;2023-12-20T04:46:54;3.00;;;2.70;;
24335;SDS011;75016;52.400;16.880;2023-12-20T04:49:22;5.40;;;3.30;;
24335;SDS011;75016;52.400;16.880;2023-12-20T04:51:49;3.10;;;2.80;;
24335;SDS011;75016;52.400;16.880;2023-12-20T04:54:16;4.00;;;2.80;;
24335;SDS011;75016;52.400;16.880;2023-12-20T04:56:42;3.10;;;2.80;;
24335;SDS011;75016;52.400;16.880;2023-12-20T04:59:09;2.70;;;2.50;;
24335;SDS011;75016;52.400;16.880;2023-12-20T05:01:35;3.60;;;2.60;;
24335;SDS011;75016;52.400;16.880;2023-12-20T05:04:02;3.60;;;2.70;;
24335;SDS011;75016;52.400;16.880;2023-12-20T05:06:29;3.50;;;2.90;;
24335;SDS011;75016;52.400;16.880;2023-12-20T05:08:55;3.40;;;3.10;;
24335;SDS011;75016;52.400;16.880;2023-12-20T05:11:22;3.00;;;2.70;;
24335;SDS011;75016;52.400;16.880;2023-12-20T05:13:48;3.20;;;2.20;;
24335;SDS011;75016;52.400;16.880;2023-12-20T05:16:15;2.50;;;2.20;;
24335;SDS011;75016;52.400;16.880;2023-12-20T05:18:44;4.10;;;2.40;;
24335;SDS011;75016;52.400;16.880;2023-12-20T05:21:11;4.80;;;2.60;;
24335;SDS011;75016;52.400;16.880;2023-12-20T05:23:38;3.00;;;2.60;;
24335;SDS011;75016;52.400;16.880;2023-12-20T05:26:04;5.70;;;2.60;;
24335;SDS011;75016;52.400;16.880;2023-12-20T05:28:31;2.50;;;2.30;;
24335;SDS011;75016;52.400;16.880;2023-12-20T05:30:57;2.70;;;2.50;;
24335;SDS011;75016;52.400;16.880;2023-12-20T05:33:24;2.50;;;2.30;;
24335;SDS011;75016;52.400;16.880;2023-12-20T05:35:51;2.90;;;2.60;;
24335;SDS011;75016;52.400;16.880;2023-12-20T05:38:18;2.50;;;2.30;;
24335;SDS011;75016;52.400;16.880;2023-12-20T05:40:44;3.00;;;2.80;;
24335;SDS011;75016;52.400;16.880;2023-12-20T05:43:11;3.40;;;3.10;;
24335;SDS011;75016;52.400;16.880;2023-12-20T05:45:38;3.70;;;3.10;;
24335;SDS011;75016;52.400;16.880;2023-12-20T05:48:05;3.30;;;3.00;;
24335;SDS011;75016;52.400;16.880;2023-12-20T05:50:31;3.40;;;3.10;;
24335;SDS011;75016;52.400;16.880;2023-12-20T05:52:58;3.40;;;3.10;;
24335;SDS011;75016;52.400;16.880;2023-12-20T05:55:24;2.80;;;2.60;;
24335;SDS011;75016;52.400;16.880;2023-12-20T05:57:51;3.00;;;2.80;;
24335;SDS011;75016;52.400;16.880;2023-12-20T06:00:17;3.00;;;2.80;;
24335;SDS011;75016;52.400;16.880;2023-12-20T06:02:44;3.40;;;3.10;;
24335;SDS011;75016;52.400;16.880;2023-12-20T06:05:11;3.40;;;3.10;;
24335;SDS011;75016;52.400;16.880;2023-12-20T06:07:37;3.80;;;3.10;;
24335;SDS011;75016;52.400;16.880;2023-12-20T06:10:04;3.80;;;3.50;;
24335;SDS011;75016;52.400;16.880;2023-12-20T06:12:32;3.50;;;3.20;;
24335;SDS011;75016;52.400;16.880;2023-12-20T06:15:02;4.40;;;4.00;;
24335;SDS011;75016;52.400;16.880;2023-12-20T06:17:29;3.90;;;3.60;;
24335;SDS011;75016;52.400;16.880;2023-12-20T06:19:57;4.60;;;3.40;;
24335;SDS011;75016;52.400;16.880;2023-12-20T06:22:23;3.60;;;2.90;;
24335;SDS011;75016;52.400;16.880;2023-12-20T06:24:50;4.80;;;3.40;;
24335;SDS011;75016;52.400;16.880;2023-12-20T06:27:16;3.40;;;2.80;;
24335;SDS011;75016;52.400;16.880;2023-12-20T06:29:43;2.80;;;2.60;;
24335;SDS011;75016;52.400;16.880;2023-12-20T06:32:11;3.00;;;2.50;;
24335;SDS011;75016;52.400;16.880;2023-12-20T06:34:37;3.90;;;2.60;;
24335;SDS011;75016;52.400;16.880;2023-12-20T06:37:04;3.40;;;2.30;;
24335;SDS011;75016;52.400;16.880;2023-12-20T06:39:31;2.60;;;2.40;;
24335;SDS011;75016;52.400;16.880;2023-12-20T06:42:00;3.10;;;2.30;;
24335;SDS011;75016;52.400;16.880;2023-12-20T06:44:26;2.40;;;2.20;;
24335;SDS011;75016;52.400;16.880;2023-12-20T06:46:53;3.60;;;2.50;;
24335;SDS011;75016;52.400;16.880;2023-12-20T06:49:20;2.70;;;2.50;;
24335;SDS011;75016;52.400;16.880;2023-12-20T06:51:47;3.30;;;2.00;;
24335;SDS011;75016;52.400;16.880;2023-12-20T06:54:13;3.30;;;2.20;;
24335;SDS011;75016;52.400;16.880;2023-12-20T06:56:40;2.50;;;2.30;;
24335;SDS011;75016;52.400;16.880;2023-12-20T06:59:07;3.60;;;2.20;;
24335;SDS011;75016;52.400;16.880;2023-12-20T07:01:33;3.10;;;2.20;;
24335;SDS011;75016;52.400;16.880;2023-12-20T07:04:00;2.80;;;2.30;;
24335;SDS011;75016;52.400;16.880;2023-12-20T07:06:26;2.70;;;2.10;;
24335;SDS011;75016;52.400;16.880;2023-12-20T07:08:53;4.50;;;2.10;;
24335;SDS011;75016;52.400;16.880;2023-12-20T07:11:19;3.80;;;2.30;;
24335;SDS011;75016;52.400;16.880;2023-12-20T07:13:46;2.90;;;2.30;;
24335;SDS011;75016;52.400;16.880;2023-12-20T07:16:12;3.00;;;2.10;;
24335;SDS011;75016;52.400;16.880;2023-12-20T07:18:39;2.20;;;1.90;;
24335;SDS011;75016;52.400;16.880;2023-12-20T07:21:06;3.00;;;2.10;;
24335;SDS011;75016;52.400;16.880;2023-12-20T07:23:34;3.00;;;2.40;;
24335;SDS011;75016;52.400;16.880;2023-12-20T07:26:00;2.80;;;2.20;;
24335;SDS011;75016;52.400;16.880;2023-12-20T07:28:27;4.00;;;2.50;;
24335;SDS011;75016;52.400;16.880;2023-12-20T07:30:53;2.70;;;2.50;;
24335;SDS011;75016;52.400;16.880;2023-12-20T07:33:20;4.50;;;2.60;;
24335;SDS011;75016;52.400;16.880;2023-12-20T07:35:47;3.90;;;2.30;;
24335;SDS011;75016;52.400;16.880;2023-12-20T07:38:13;3.50;;;2.80;;
24335;SDS011;75016;52.400;16.880;2023-12-20T07:40:40;3.20;;;2.30;;
24335;SDS011;75016;52.400;16.880;2023-12-20T07:43:06;3.80;;;2.30;;
24335;SDS011;75016;52.400;16.880;2023-12-20T07:45:33;3.30;;;2.50;;
24335;SDS011;75016;52.400;16.880;2023-12-20T07:47:59;3.10;;;2.60;;
24335;SDS011;75016;52.400;16.880;2023-12-20T07:50:26;3.70;;;2.70;;
24335;SDS011;75016;52.400;16.880;2023-12-20T07:52:53;4.20;;;3.00;;
24335;SDS011;75016;52.400;16.880;2023-12-20T07:55:20;5.80;;;4.40;;
24335;SDS011;75016;52.400;16.880;2023-12-20T07:57:47;4.90;;;3.60;;
24335;SDS011;75016;52.400;16.880;2023-12-20T08:00:13;3.70;;;3.20;;
24335;SDS011;75016;52.400;16.880;2023-12-20T08:02:40;5.70;;;3.30;;
24335;SDS011;75016;52.400;16.880;2023-12-20T08:05:07;4.70;;;4.00;;
24335;SDS011;75016;52.400;16.880;2023-12-20T08:07:34;6.60;;;4.10;;
24335;SDS011;75016;52.400;16.880;2023-12-20T08:10:00;4.70;;;3.80;;
24335;SDS011;75016;52.400;16.880;2023-12-20T08:12:27;7.70;;;3.90;;
24335;SDS011;75016;52.400;16.880;2023-12-20T08:14:54;4.90;;;3.30;;
24335;SDS011;75016;52.400;16.880;2023-12-20T08:17:20;8.30;;;3.80;;
24335;SDS011;75016;52.400;16.880;2023-12-20T08:19:47;5.70;;;3.50;;
24335;SDS011;75016;52.400;16.880;2023-12-20T08:22:14;5.40;;;3.70;;
24335;SDS011;75016;52.400;16.880;2023-12-20T08:24:40;6.50;;;2.90;;
24335;SDS011;75016;52.400;16.880;2023-12-20T08:27:07;7.50;;;3.80;;
24335;SDS011;75016;52.400;16.880;2023-12-20T08:29:33;4.60;;;3.30;;
24335;SDS011;75016;52.400;16.880;2023-12-20T08:32:00;4.30;;;3.40;;
24335;SDS011;75016;52.400;16.880;2023-12-20T08:34:26;4.20;;;3.10;;
24335;SDS011;75016;52.400;16.880;2023-12-20T08:36:53;6.60;;;2.70;;
24335;SDS011;75016;52.400;16.880;2023-12-20T08:39:19;4.70;;;2.90;;
24335;SDS011;75016;52.400;16.880;2023-12-20T08:41:46;6.40;;;3.10;;
24335;SDS011;75016;52.400;16.880;2023-12-20T08:44:13;4.50;;;2.80;;
24335;SDS011;75016;52.400;16.880;2023-12-20T08:46:39;5.80;;;3.20;;
24335;SDS011;75016;52.400;16.880;2023-12-20T08:49:06;4.90;;;3.20;;
24335;SDS011;75016;52.400;16.880;2023-12-20T08:51:33;4.10;;;3.50;;
24335;SDS011;75016;52.400;16.880;2023-12-20T08:53:59;5.30;;;3.20;;
24335;SDS011;75016;52.400;16.880;2023-12-20T08:56:26;8.30;;;3.80;;
24335;SDS011;75016;52.400;16.880;2023-12-20T08:58:53;7.20;;;3.50;;
24335;SDS011;75016;52.400;16.880;2023-12-20T09:01:19;4.50;;;3.30;;
24335;SDS011;75016;52.400;16.880;2023-12-20T09:03:46;5.50;;;3.60;;
24335;SDS011;75016;52.400;16.880;2023-12-20T09:06:12;5.30;;;3.40;;
24335;SDS011;75016;52.400;16.880;2023-12-20T09:08:39;4.10;;;2.70;;
24335;SDS011;75016;52.400;16.880;2023-12-20T09:11:06;4.50;;;2.90;;
24335;SDS011;75016;52.400;16.880;2023-12-20T09:13:33;5.50;;;3.10;;
24335;SDS011;75016;52.400;16.880;2023-12-20T09:15:59;4.80;;;3.10;;
24335;SDS011;75016;52.400;16.880;2023-12-20T09:18:26;7.00;;;3.30;;
24335;SDS011;75016;52.400;16.880;2023-12-20T09:20:52;6.80;;;3.10;;
24335;SDS011;75016;52.400;16.880;2023-12-20T09:23:19;5.90;;;3.20;;
24335;SDS011;75016;52.400;16.880;2023-12-20T09:25:45;4.80;;;2.90;;
24335;SDS011;75016;52.400;16.880;2023-12-20T09:28:12;5.60;;;2.90;;
24335;SDS011;75016;52.400;16.880;2023-12-20T09:30:38;6.20;;;2.80;;
24335;SDS011;75016;52.400;16.880;2023-12-20T09:33:06;5.30;;;2.50;;
24335;SDS011;75016;52.400;16.880;2023-12-20T09:35:33;7.40;;;2.90;;
24335;SDS011;75016;52.400;16.880;2023-12-20T09:38:00;7.20;;;2.60;;
24335;SDS011;75016;52.400;16.880;2023-12-20T09:40:26;5.40;;;2.90;;
24335;SDS011;75016;52.400;16.880;2023-12-20T09:42:58;5.90;;;2.90;;
24335;SDS011;75016;52.400;16.880;2023-12-20T09:45:29;4.20;;;2.50;;
24335;SDS011;75016;52.400;16.880;2023-12-20T09:47:57;3.70;;;2.20;;
24335;SDS011;75016;52.400;16.880;2023-12-20T09:50:24;9.70;;;2.40;;
24335;SDS011;75016;52.400;16.880;2023-12-20T09:52:52;6.40;;;2.50;;
24335;SDS011;75016;52.400;16.880;2023-12-20T09:55:19;5.50;;;2.90;;
24335;SDS011;75016;52.400;16.880;2023-12-20T09:57:47;4.80;;;2.70;;
24335;SDS011;75016;52.400;16.880;2023-12-20T10:00:15;7.60;;;2.90;;
24335;SDS011;75016;52.400;16.880;2023-12-20T10:02:50;6.20;;;2.90;;
24335;SDS011;75016;52.400;16.880;2023-12-20T10:05:30;7.20;;;3.00;;
24335;SDS011;75016;52.400;16.880;2023-12-20T10:07:58;6.10;;;3.40;;
24335;SDS011;75016;52.400;16.880;2023-12-20T10:10:26;6.50;;;3.30;;
24335;SDS011;75016;52.400;16.880;2023-12-20T10:15:29;9.90;;;3.70;;
24335;SDS011;75016;52.400;16.880;2023-12-20T10:17:57;5.90;;;2.90;;
24335;SDS011;75016;52.400;16.880;2023-12-20T10:20:24;6.00;;;2.80;;
24335;SDS011;75016;52.400;16.880;2023-12-20T10:22:51;6.00;;;2.70;;
24335;SDS011;75016;52.400;16.880;2023-12-20T10:25:20;4.80;;;2.90;;
24335;SDS011;75016;52.400;16.880;2023-12-20T10:27:47;3.10;;;2.10;;
24335;SDS011;75016;52.400;16.880;2023-12-20T10:30:14;4.40;;;2.50;;
24335;SDS011;75016;52.400;16.880;2023-12-20T10:32:40;5.10;;;2.20;;
24335;SDS011;75016;52.400;16.880;2023-12-20T10:35:08;4.20;;;2.50;;
24335;SDS011;75016;52.400;16.880;2023-12-20T10:37:35;5.00;;;2.40;;
24335;SDS011;75016;52.400;16.880;2023-12-20T10:40:04;4.90;;;2.40;;
24335;SDS011;75016;52.400;16.880;2023-12-20T10:42:32;8.90;;;2.70;;
24335;SDS011;75016;52.400;16.880;2023-12-20T10:45:00;4.20;;;2.30;;
24335;SDS011;75016;52.400;16.880;2023-12-20T10:47:26;6.20;;;2.30;;
24335;SDS011;75016;52.400;16.880;2023-12-20T10:49:54;5.80;;;2.10;;
24335;SDS011;75016;52.400;16.880;2023-12-20T10:52:23;4.30;;;2.20;;
24335;SDS011;75016;52.400;16.880;2023-12-20T10:54:49;2.80;;;1.90;;
24335;SDS011;75016;52.400;16.880;2023-12-20T10:57:16;4.80;;;2.00;;
24335;SDS011;75016;52.400;16.880;2023-12-20T10:59:44;7.40;;;2.50;;
24335;SDS011;75016;52.400;16.880;2023-12-20T11:02:15;6.50;;;2.30;;
24335;SDS011;75016;52.400;16.880;2023-12-20T11:07:43;4.80;;;2.40;;
24335;SDS011;75016;52.400;16.880;2023-12-20T11:10:16;8.00;;;2.90;;
24335;SDS011;75016;52.400;16.880;2023-12-20T11:13:05;7.90;;;2.50;;
24335;SDS011;75016;52.400;16.880;2023-12-20T11:15:38;4.00;;;2.50;;
24335;SDS011;75016;52.400;16.880;2023-12-20T11:18:05;7.00;;;2.90;;
24335;SDS011;75016;52.400;16.880;2023-12-20T11:20:39;6.10;;;2.60;;
24335;SDS011;75016;52.400;16.880;2023-12-20T11:23:08;6.70;;;2.70;;
24335;SDS011;75016;52.400;16.880;2023-12-20T11:25:54;7.90;;;2.40;;
24335;SDS011;75016;52.400;16.880;2023-12-20T11:28:25;6.10;;;2.30;;
24335;SDS011;75016;52.400;16.880;2023-12-20T11:30:56;6.30;;;2.50;;
24335;SDS011;75016;52.400;16.880;2023-12-20T11:33:26;8.00;;;2.70;;
24335;SDS011;75016;52.400;16.880;2023-12-20T11:36:03;4.30;;;2.10;;
24335;SDS011;75016;52.400;16.880;2023-12-20T11:38:39;5.30;;;2.00;;
24335;SDS011;75016;52.400;16.880;2023-12-20T11:41:20;5.90;;;2.80;;
24335;SDS011;75016;52.400;16.880;2023-12-20T11:43:51;5.70;;;2.60;;
24335;SDS011;75016;52.400;16.880;2023-12-20T11:46:19;5.40;;;2.60;;
24335;SDS011;75016;52.400;16.880;2023-12-20T11:48:46;7.90;;;2.40;;
24335;SDS011;75016;52.400;16.880;2023-12-20T11:51:14;7.00;;;2.70;;
24335;SDS011;75016;52.400;16.880;2023-12-20T11:53:41;5.20;;;2.60;;
24335;SDS011;75016;52.400;16.880;2023-12-20T11:56:11;8.10;;;2.90;;
24335;SDS011;75016;52.400;16.880;2023-12-20T11:58:38;7.30;;;2.40;;
24335;SDS011;75016;52.400;16.880;2023-12-20T12:01:05;5.00;;;2.10;;
24335;SDS011;75016;52.400;16.880;2023-12-20T12:03:33;5.20;;;2.30;;
24335;SDS011;75016;52.400;16.880;2023-12-20T12:06:00;5.80;;;2.40;;
24335;SDS011;75016;52.400;16.880;2023-12-20T12:08:29;6.60;;;2.00;;
24335;SDS011;75016;52.400;16.880;2023-12-20T12:10:55;5.20;;;2.10;;
24335;SDS011;75016;52.400;16.880;2023-12-20T12:13:22;5.20;;;2.70;;
24335;SDS011;75016;52.400;16.880;2023-12-20T12:18:20;8.60;;;2.40;;
24335;SDS011;75016;52.400;16.880;2023-12-20T12:20:47;5.10;;;2.00;;
24335;SDS011;75016;52.400;16.880;2023-12-20T12:23:13;3.80;;;1.80;;
24335;SDS011;75016;52.400;16.880;2023-12-20T12:25:40;4.20;;;1.80;;
24335;SDS011;75016;52.400;16.880;2023-12-20T12:28:07;6.30;;;2.30;;
24335;SDS011;75016;52.400;16.880;2023-12-20T12:30:33;5.30;;;2.50;;
24335;SDS011;75016;52.400;16.880;2023-12-20T12:33:00;6.40;;;2.60;;
24335;SDS011;75016;52.400;16.880;2023-12-20T12:35:27;3.90;;;2.20;;
24335;SDS011;75016;52.400;16.880;2023-12-20T12:37:53;6.50;;;2.50;;
24335;SDS011;75016;52.400;16.880;2023-12-20T12:40:20;6.80;;;2.40;;
24335;SDS011;75016;52.400;16.880;2023-12-20T12:42:46;8.80;;;2.30;;
24335;SDS011;75016;52.400;16.880;2023-12-20T12:45:13;5.80;;;2.50;;
24335;SDS011;75016;52.400;16.880;2023-12-20T12:47:40;8.00;;;2.60;;
24335;SDS011;75016;52.400;16.880;2023-12-20T12:50:07;4.70;;;2.30;;
24335;SDS011;75016;52.400;16.880;2023-12-20T12:52:34;5.10;;;2.40;;
24335;SDS011;75016;52.400;16.880;2023-12-20T12:55:01;8.20;;;2.40;;
24335;SDS011;75016;52.400;16.880;2023-12-20T12:57:28;7.40;;;2.40;;
24335;SDS011;75016;52.400;16.880;2023-12-20T12:59:54;5.30;;;2.40;;
24335;SDS011;75016;52.400;16.880;2023-12-20T13:02:21;6.00;;;2.20;;
24335;SDS011;75016;52.400;16.880;2023-12-20T13:04:48;6.20;;;2.40;;
24335;SDS011;75016;52.400;16.880;2023-12-20T13:07:15;5.20;;;2.30;;
24335;SDS011;75016;52.400;16.880;2023-12-20T13:09:42;7.10;;;2.30;;
24335;SDS011;75016;52.400;16.880;2023-12-20T13:12:09;4.20;;;2.20;;
24335;SDS011;75016;52.400;16.880;2023-12-20T13:14:36;6.00;;;2.40;;
24335;SDS011;75016;52.400;16.880;2023-12-20T13:17:05;5.80;;;2.50;;
24335;SDS011;75016;52.400;16.880;2023-12-20T13:19:33;6.40;;;2.40;;
24335;SDS011;75016;52.400;16.880;2023-12-20T13:21:59;5.10;;;2.20;;
24335;SDS011;75016;52.400;16.880;2023-12-20T13:24:26;9.60;;;2.40;;
24335;SDS011;75016;52.400;16.880;2023-12-20T13:26:52;6.30;;;2.10;;
24335;SDS011;75016;52.400;16.880;2023-12-20T13:29:19;9.60;;;2.80;;
24335;SDS011;75016;52.400;16.880;2023-12-20T13:31:46;6.30;;;2.20;;
24335;SDS011;75016;52.400;16.880;2023-12-20T13:34:12;7.80;;;2.30;;
24335;SDS011;75016;52.400;16.880;2023-12-20T13:36:39;7.00;;;2.10;;
24335;SDS011;75016;52.400;16.880;2023-12-20T13:39:05;8.50;;;2.40;;
24335;SDS011;75016;52.400;16.880;2023-12-20T13:41:33;5.00;;;1.70;;
24335;SDS011;75016;52.400;16.880;2023-12-20T13:43:59;7.50;;;1.90;;
24335;SDS011;75016;52.400;16.880;2023-12-20T13:46:27;7.10;;;1.80;;
24335;SDS011;75016;52.400;16.880;2023-12-20T13:48:54;6.50;;;1.80;;
24335;SDS011;75016;52.400;16.880;2023-12-20T13:51:20;5.60;;;2.20;;
24335;SDS011;75016;52.400;16.880;2023-12-20T13:53:47;5.50;;;2.20;;
24335;SDS011;75016;52.400;16.880;2023-12-20T13:56:15;6.70;;;2.40;;
24335;SDS011;75016;52.400;16.880;2023-12-20T13:58:42;5.70;;;2.60;;
24335;SDS011;75016;52.400;16.880;2023-12-20T14:01:09;4.90;;;2.30;;
24335;SDS011;75016;52.400;16.880;2023-12-20T14:03:36;5.00;;;2.10;;
24335;SDS011;75016;52.400;16.880;2023-12-20T14:06:03;7.10;;;2.40;;
24335;SDS011;75016;52.400;16.880;2023-12-20T14:08:30;6.80;;;2.50;;
24335;SDS011;75016;52.400;16.880;2023-12-20T14:10:56;6.80;;;2.70;;
24335;SDS011;75016;52.400;16.880;2023-12-20T14:13:23;7.30;;;2.50;;
24335;SDS011;75016;52.400;16.880;2023-12-20T14:15:50;7.00;;;2.70;;
24335;SDS011;75016;52.400;16.880;2023-12-20T14:18:16;6.80;;;2.50;;
24335;SDS011;75016;52.400;16.880;2023-12-20T14:20:43;8.90;;;2.80;;
24335;SDS011;75016;52.400;16.880;2023-12-20T14:23:10;7.70;;;3.10;;
24335;SDS011;75016;52.400;16.880;2023-12-20T14:25:37;7.60;;;3.20;;
24335;SDS011;75016;52.400;16.880;2023-12-20T14:28:04;4.20;;;2.40;;
24335;SDS011;75016;52.400;16.880;2023-12-20T14:30:30;7.70;;;2.80;;
24335;SDS011;75016;52.400;16.880;2023-12-20T14:32:57;8.20;;;2.70;;
24335;SDS011;75016;52.400;16.880;2023-12-20T14:35:23;4.20;;;2.50;;
24335;SDS011;75016;52.400;16.880;2023-12-20T14:37:50;8.00;;;2.90;;
24335;SDS011;75016;52.400;16.880;2023-12-20T14:40:16;7.70;;;2.70;;